F V Viking Storm — CZ7652 — position and weather

sailwx.info

Track history (hours):
 
Tides and Currents Weather Stations Pressure Air Temp Water Temp Dewpoint Dewpoint Depression Visibility Wind Speed Wind Dir Waves Ship Positions

F V Viking Storm

Last reported at 2017-Dec-11 17:00 UTC. Time now 2017-Dec-12 02:50 UTC.
Position N 51°13' W 129°05'.

Length 31 m; draft 4 m.

Type: Fishing. MMSI: 316005448.

Date/timePositionNaut miles runAvg speedWind from/ knotsBaromVisibWave heightAir tempDewpointWater temp
2017-Dec-11 17:00N 51°13' W 129°05'4 7.6
2017-Dec-11 16:31N 51°11' W 129°00'4 7.5
2017-Dec-11 16:00N 51°10' W 128°55'4 7.6
2017-Dec-11 15:30N 51°08' W 128°49'4 7.4
2017-Dec-11 15:00N 51°07' W 128°44'3 6.9
2017-Dec-11 14:30N 51°05' W 128°39'4 7.5
2017-Dec-11 14:00N 51°04' W 128°33'4 7.6
2017-Dec-11 13:30N 51°02' W 128°28'4 7.8
2017-Dec-11 13:00N 51°00' W 128°22'4 7.5
2017-Dec-11 12:30N 50°59' W 128°17'4 7.5
2017-Dec-11 11:58N 50°57' W 128°11'4 7.8
2017-Dec-11 11:28N 50°55' W 128°06'4 7.5
2017-Dec-11 10:59N 50°54' W 128°00'5 7.5
2017-Dec-11 10:18N 50°52' W 127°52'2 8.0
2017-Dec-11 10:00N 50°52' W 127°49'4 7.9
2017-Dec-11 09:30N 50°50' W 127°43'4 8.0
2017-Dec-11 09:00N 50°49' W 127°37'4 8.6
2017-Dec-11 08:30N 50°47' W 127°31'4 7.3
2017-Dec-11 08:00N 50°44' W 127°28'1 0.1
2017-Dec-10 23:46N 50°43' W 127°29'0 0.3
2017-Dec-10 23:28N 50°43' W 127°29'0 0.0
2017-Dec-10 22:57N 50°43' W 127°29'0 0.0
2017-Dec-10 22:28N 50°43' W 127°29'0 0.0
2017-Dec-10 21:37N 50°43' W 127°29'0 0.0
2017-Dec-10 21:30N 50°43' W 127°29'0 0.0
2017-Dec-10 20:56N 50°43' W 127°29'0 0.0
2017-Dec-10 20:30N 50°43' W 127°29'0 0.0
2017-Dec-10 20:00N 50°43' W 127°29'0 0.0
2017-Dec-10 19:28N 50°43' W 127°29'0 0.0
2017-Dec-10 19:00N 50°43' W 127°29'0 0.0
2017-Dec-10 18:30N 50°43' W 127°29'0 0.0
2017-Dec-10 18:00N 50°43' W 127°29'0 0.0
2017-Dec-10 17:28N 50°43' W 127°29'0 0.0
2017-Dec-10 16:58N 50°43' W 127°29'0 0.0
2017-Dec-10 16:27N 50°43' W 127°29'0 0.0
2017-Dec-10 16:00N 50°43' W 127°29'0 0.0
2017-Dec-10 15:24N 50°43' W 127°29'0 0.0
2017-Dec-10 14:55N 50°43' W 127°29'0 0.0
2017-Dec-10 14:26N 50°43' W 127°29'0 0.0
2017-Dec-10 13:55N 50°43' W 127°29'0 0.0
2017-Dec-10 13:30N 50°43' W 127°29'0 0.0
2017-Dec-10 12:48N 50°43' W 127°29'0 0.0
2017-Dec-10 12:27N 50°43' W 127°29'0 0.0
2017-Dec-10 12:00N 50°43' W 127°29'0 0.0
2017-Dec-10 11:30N 50°43' W 127°29'0 0.0
2017-Dec-10 11:00N 50°43' W 127°29'0 0.0
2017-Dec-10 10:29N 50°43' W 127°29'0 0.0
2017-Dec-10 09:57N 50°43' W 127°29'0 0.0
2017-Dec-10 09:27N 50°43' W 127°29'0 0.0
2017-Dec-10 08:56N 50°43' W 127°29'0 0.0
2017-Dec-10 07:53N 50°43' W 127°29'0 0.0
2017-Dec-10 07:28N 50°43' W 127°29'0 0.0
2017-Dec-10 05:40N 50°43' W 127°29'0 0.0
2017-Dec-10 02:21N 50°43' W 127°29'0 0.0
2017-Dec-09 21:00N 50°43' W 127°29'0 0.0
2017-Dec-09 20:26N 50°43' W 127°29'0 0.0
2017-Dec-09 20:00N 50°43' W 127°29'0 0.0
2017-Dec-09 18:41N 50°43' W 127°29'0 0.0
2017-Dec-09 18:27N 50°43' W 127°29'0 0.0
2017-Dec-09 17:56N 50°43' W 127°29'0 0.0
2017-Dec-09 16:53N 50°43' W 127°29'0 0.0
2017-Dec-09 16:27N 50°43' W 127°29'0 0.0
2017-Dec-09 12:21N 50°43' W 127°29'0 0.0
2017-Dec-09 11:22N 50°43' W 127°29'0 0.0
2017-Dec-09 09:52N 50°43' W 127°29'0 0.0
2017-Dec-09 09:08N 50°43' W 127°29'0 0.0
2017-Dec-09 08:58N 50°43' W 127°29'0 0.0
2017-Dec-09 08:23N 50°43' W 127°29'0 0.0
2017-Dec-09 08:00N 50°43' W 127°29'0 0.0
2017-Dec-09 07:29N 50°43' W 127°29'0 0.0
2017-Dec-09 07:00N 50°43' W 127°29'1 0.0
2017-Dec-07 23:28N 50°43' W 127°28'1 0.9
2017-Dec-07 22:14N 50°43' W 127°29'0 0.0
2017-Dec-07 21:03N 50°43' W 127°29'0 0.0
2017-Dec-07 10:39N 50°43' W 127°29'1 7.0
2017-Dec-07 10:30N 50°44' W 127°28'3 6.0
2017-Dec-07 10:00N 50°47' W 127°30'4 8.7
2017-Dec-07 09:30N 50°48' W 127°36'4 8.3
2017-Dec-07 09:00N 50°50' W 127°42'4 8.4
2017-Dec-07 08:30N 50°51' W 127°49'17 8.7
2017-Dec-07 06:30N 50°58' W 128°14'4 7.7
2017-Dec-07 06:00N 50°59' W 128°20'4 7.5
2017-Dec-07 05:30N 51°01' W 128°25'4 7.3
2017-Dec-07 05:00N 51°02' W 128°30'4 7.3
2017-Dec-07 04:30N 51°04' W 128°36'4 7.0
2017-Dec-07 04:00N 51°05' W 128°41'3 6.8
2017-Dec-07 03:30N 51°07' W 128°46'3 6.8
2017-Dec-07 03:00N 51°08' W 128°51'4 6.8
2017-Dec-07 02:29N 51°10' W 128°56'3 7.2
2017-Dec-07 02:00N 51°11' W 129°01'4 7.3
2017-Dec-07 01:30N 51°12' W 129°06'8 7.3
2017-Dec-07 00:22N 51°15' W 129°19'  
2017-Dec-04 09:18N 50°43' W 127°29'0 0.0
2017-Dec-04 08:29N 50°43' W 127°29'0 0.0
2017-Dec-04 03:17N 50°43' W 127°29'0 0.0
2017-Dec-04 02:51N 50°43' W 127°29'0 0.0
2017-Dec-03 22:01N 50°43' W 127°29'0 0.0
2017-Dec-03 21:55N 50°43' W 127°29'  
Track history (hours):
 
Tides and Currents Weather Stations Pressure Air Temp Water Temp Dewpoint Dewpoint Depression Visibility Wind Speed Wind Dir Waves Ship Positions

F V Viking Storm

Last reported at 2017-Dec-11 17:00 UTC. Time now 2017-Dec-12 02:50 UTC.
Position N 51°13' W 129°05'.

Length 31 m; draft 4 m.

Type: Fishing. MMSI: 316005448.

Date/timePositionNaut miles runAvg speedWind from/ knotsBaromVisibWave heightAir tempDewpointWater temp
2017-Dec-11 17:00N 51°13' W 129°05'4 7.6
2017-Dec-11 16:31N 51°11' W 129°00'4 7.5
2017-Dec-11 16:00N 51°10' W 128°55'4 7.6
2017-Dec-11 15:30N 51°08' W 128°49'4 7.4
2017-Dec-11 15:00N 51°07' W 128°44'3 6.9
2017-Dec-11 14:30N 51°05' W 128°39'4 7.5
2017-Dec-11 14:00N 51°04' W 128°33'4 7.6
2017-Dec-11 13:30N 51°02' W 128°28'4 7.8
2017-Dec-11 13:00N 51°00' W 128°22'4 7.5
2017-Dec-11 12:30N 50°59' W 128°17'4 7.5
2017-Dec-11 11:58N 50°57' W 128°11'4 7.8
2017-Dec-11 11:28N 50°55' W 128°06'4 7.5
2017-Dec-11 10:59N 50°54' W 128°00'5 7.5
2017-Dec-11 10:18N 50°52' W 127°52'2 8.0
2017-Dec-11 10:00N 50°52' W 127°49'4 7.9
2017-Dec-11 09:30N 50°50' W 127°43'4 8.0
2017-Dec-11 09:00N 50°49' W 127°37'4 8.6
2017-Dec-11 08:30N 50°47' W 127°31'4 7.3
2017-Dec-11 08:00N 50°44' W 127°28'1 0.1
2017-Dec-10 23:46N 50°43' W 127°29'0 0.3
2017-Dec-10 23:28N 50°43' W 127°29'0 0.0
2017-Dec-10 22:57N 50°43' W 127°29'0 0.0
2017-Dec-10 22:28N 50°43' W 127°29'0 0.0
2017-Dec-10 21:37N 50°43' W 127°29'0 0.0
2017-Dec-10 21:30N 50°43' W 127°29'0 0.0
2017-Dec-10 20:56N 50°43' W 127°29'0 0.0
2017-Dec-10 20:30N 50°43' W 127°29'0 0.0
2017-Dec-10 20:00N 50°43' W 127°29'0 0.0
2017-Dec-10 19:28N 50°43' W 127°29'0 0.0
2017-Dec-10 19:00N 50°43' W 127°29'0 0.0
2017-Dec-10 18:30N 50°43' W 127°29'0 0.0
2017-Dec-10 18:00N 50°43' W 127°29'0 0.0
2017-Dec-10 17:28N 50°43' W 127°29'0 0.0
2017-Dec-10 16:58N 50°43' W 127°29'0 0.0
2017-Dec-10 16:27N 50°43' W 127°29'0 0.0
2017-Dec-10 16:00N 50°43' W 127°29'0 0.0
2017-Dec-10 15:24N 50°43' W 127°29'0 0.0
2017-Dec-10 14:55N 50°43' W 127°29'0 0.0
2017-Dec-10 14:26N 50°43' W 127°29'0 0.0
2017-Dec-10 13:55N 50°43' W 127°29'0 0.0
2017-Dec-10 13:30N 50°43' W 127°29'0 0.0
2017-Dec-10 12:48N 50°43' W 127°29'0 0.0
2017-Dec-10 12:27N 50°43' W 127°29'0 0.0
2017-Dec-10 12:00N 50°43' W 127°29'0 0.0
2017-Dec-10 11:30N 50°43' W 127°29'0 0.0
2017-Dec-10 11:00N 50°43' W 127°29'0 0.0
2017-Dec-10 10:29N 50°43' W 127°29'0 0.0
2017-Dec-10 09:57N 50°43' W 127°29'0 0.0
2017-Dec-10 09:27N 50°43' W 127°29'0 0.0
2017-Dec-10 08:56N 50°43' W 127°29'0 0.0
2017-Dec-10 07:53N 50°43' W 127°29'0 0.0
2017-Dec-10 07:28N 50°43' W 127°29'0 0.0
2017-Dec-10 05:40N 50°43' W 127°29'0 0.0
2017-Dec-10 02:21N 50°43' W 127°29'0 0.0
2017-Dec-09 21:00N 50°43' W 127°29'0 0.0
2017-Dec-09 20:26N 50°43' W 127°29'0 0.0
2017-Dec-09 20:00N 50°43' W 127°29'0 0.0
2017-Dec-09 18:41N 50°43' W 127°29'0 0.0
2017-Dec-09 18:27N 50°43' W 127°29'0 0.0
2017-Dec-09 17:56N 50°43' W 127°29'0 0.0
2017-Dec-09 16:53N 50°43' W 127°29'0 0.0
2017-Dec-09 16:27N 50°43' W 127°29'0 0.0
2017-Dec-09 12:21N 50°43' W 127°29'0 0.0
2017-Dec-09 11:22N 50°43' W 127°29'0 0.0
2017-Dec-09 09:52N 50°43' W 127°29'0 0.0
2017-Dec-09 09:08N 50°43' W 127°29'0 0.0
2017-Dec-09 08:58N 50°43' W 127°29'0 0.0
2017-Dec-09 08:23N 50°43' W 127°29'0 0.0
2017-Dec-09 08:00N 50°43' W 127°29'0 0.0
2017-Dec-09 07:29N 50°43' W 127°29'0 0.0
2017-Dec-09 07:00N 50°43' W 127°29'1 0.0
2017-Dec-07 23:28N 50°43' W 127°28'1 0.9
2017-Dec-07 22:14N 50°43' W 127°29'0 0.0
2017-Dec-07 21:03N 50°43' W 127°29'0 0.0
2017-Dec-07 10:39N 50°43' W 127°29'1 7.0
2017-Dec-07 10:30N 50°44' W 127°28'3 6.0
2017-Dec-07 10:00N 50°47' W 127°30'4 8.7
2017-Dec-07 09:30N 50°48' W 127°36'4 8.3
2017-Dec-07 09:00N 50°50' W 127°42'4 8.4
2017-Dec-07 08:30N 50°51' W 127°49'17 8.7
2017-Dec-07 06:30N 50°58' W 128°14'4 7.7
2017-Dec-07 06:00N 50°59' W 128°20'4 7.5
2017-Dec-07 05:30N 51°01' W 128°25'4 7.3
2017-Dec-07 05:00N 51°02' W 128°30'4 7.3
2017-Dec-07 04:30N 51°04' W 128°36'4 7.0
2017-Dec-07 04:00N 51°05' W 128°41'3 6.8
2017-Dec-07 03:30N 51°07' W 128°46'3 6.8
2017-Dec-07 03:00N 51°08' W 128°51'4 6.8
2017-Dec-07 02:29N 51°10' W 128°56'3 7.2
2017-Dec-07 02:00N 51°11' W 129°01'4 7.3
2017-Dec-07 01:30N 51°12' W 129°06'8 7.3
2017-Dec-07 00:22N 51°15' W 129°19'  
2017-Dec-04 09:18N 50°43' W 127°29'0 0.0
2017-Dec-04 08:29N 50°43' W 127°29'0 0.0
2017-Dec-04 03:17N 50°43' W 127°29'0 0.0
2017-Dec-04 02:51N 50°43' W 127°29'0 0.0
2017-Dec-03 22:01N 50°43' W 127°29'0 0.0
2017-Dec-03 21:55N 50°43' W 127°29'  

Dump ship's entire track history